sensor_id;sensor_type;location;lat;lon;timestamp;temperature;humidity
5554;DHT22;2800;49.528;8.666;2023-08-08T00:02:04;14.50;99.90
5554;DHT22;2800;49.528;8.666;2023-08-08T00:04:29;14.50;99.90
5554;DHT22;2800;49.528;8.666;2023-08-08T00:06:56;14.50;99.90
5554;DHT22;2800;49.528;8.666;2023-08-08T00:09:22;14.50;99.90
5554;DHT22;2800;49.528;8.666;2023-08-08T00:11:47;14.40;99.90
5554;DHT22;2800;49.528;8.666;2023-08-08T00:14:14;14.30;99.90
5554;DHT22;2800;49.528;8.666;2023-08-08T00:16:39;14.30;99.90
5554;DHT22;2800;49.528;8.666;2023-08-08T00:19:05;15.50;99.90
5554;DHT22;2800;49.528;8.666;2023-08-08T00:21:30;14.30;99.90
5554;DHT22;2800;49.528;8.666;2023-08-08T00:23:56;14.30;99.90
5554;DHT22;2800;49.528;8.666;2023-08-08T00:26:21;14.30;99.90
5554;DHT22;2800;49.528;8.666;2023-08-08T00:28:47;14.20;99.90
5554;DHT22;2800;49.528;8.666;2023-08-08T00:31:12;14.20;99.90
5554;DHT22;2800;49.528;8.666;2023-08-08T00:33:38;14.30;99.90
5554;DHT22;2800;49.528;8.666;2023-08-08T00:36:04;14.20;99.90
5554;DHT22;2800;49.528;8.666;2023-08-08T00:38:29;14.20;99.90
5554;DHT22;2800;49.528;8.666;2023-08-08T00:40:55;14.10;99.90
5554;DHT22;2800;49.528;8.666;2023-08-08T00:43:20;14.10;99.90
5554;DHT22;2800;49.528;8.666;2023-08-08T00:45:46;14.10;99.90
5554;DHT22;2800;49.528;8.666;2023-08-08T00:48:11;14.10;99.90
5554;DHT22;2800;49.528;8.666;2023-08-08T00:50:41;14.10;99.90
5554;DHT22;2800;49.528;8.666;2023-08-08T00:53:07;14.10;99.90
5554;DHT22;2800;49.528;8.666;2023-08-08T00:55:33;14.10;99.90
5554;DHT22;2800;49.528;8.666;2023-08-08T00:57:59;14.10;99.90
5554;DHT22;2800;49.528;8.666;2023-08-08T01:00:24;14.10;99.90
5554;DHT22;2800;49.528;8.666;2023-08-08T01:02:50;14.10;99.90
5554;DHT22;2800;49.528;8.666;2023-08-08T01:05:15;14.10;99.90
5554;DHT22;2800;49.528;8.666;2023-08-08T01:10:15;14.00;99.90
5554;DHT22;2800;49.528;8.666;2023-08-08T01:12:50;14.00;99.90
5554;DHT22;2800;49.528;8.666;2023-08-08T01:15:17;13.90;99.90
5554;DHT22;2800;49.528;8.666;2023-08-08T01:17:44;13.90;99.90
5554;DHT22;2800;49.528;8.666;2023-08-08T01:20:11;13.80;99.90
5554;DHT22;2800;49.528;8.666;2023-08-08T01:22:48;13.70;99.90
5554;DHT22;2800;49.528;8.666;2023-08-08T01:25:15;13.60;99.90
5554;DHT22;2800;49.528;8.666;2023-08-08T01:27:41;13.50;99.90
5554;DHT22;2800;49.528;8.666;2023-08-08T01:30:08;13.40;99.90
5554;DHT22;2800;49.528;8.666;2023-08-08T01:32:34;13.40;99.90
5554;DHT22;2800;49.528;8.666;2023-08-08T01:34:59;13.30;99.90
5554;DHT22;2800;49.528;8.666;2023-08-08T01:37:45;13.30;99.90
5554;DHT22;2800;49.528;8.666;2023-08-08T01:40:13;13.20;99.90
5554;DHT22;2800;49.528;8.666;2023-08-08T01:42:41;13.20;99.90
5554;DHT22;2800;49.528;8.666;2023-08-08T01:45:08;13.10;99.90
5554;DHT22;2800;49.528;8.666;2023-08-08T01:47:35;13.00;99.90
5554;DHT22;2800;49.528;8.666;2023-08-08T01:50:01;13.10;99.90
5554;DHT22;2800;49.528;8.666;2023-08-08T01:52:26;13.10;99.90
5554;DHT22;2800;49.528;8.666;2023-08-08T01:54:52;12.90;99.90
5554;DHT22;2800;49.528;8.666;2023-08-08T01:57:17;12.80;99.90
5554;DHT22;2800;49.528;8.666;2023-08-08T01:59:45;12.80;99.90
5554;DHT22;2800;49.528;8.666;2023-08-08T02:02:11;12.80;99.90
5554;DHT22;2800;49.528;8.666;2023-08-08T02:04:37;12.80;99.90
5554;DHT22;2800;49.528;8.666;2023-08-08T02:07:02;12.80;99.90
5554;DHT22;2800;49.528;8.666;2023-08-08T02:09:28;12.90;99.90
5554;DHT22;2800;49.528;8.666;2023-08-08T02:11:53;12.90;99.90
5554;DHT22;2800;49.528;8.666;2023-08-08T02:14:19;12.90;99.90
5554;DHT22;2800;49.528;8.666;2023-08-08T02:16:44;12.90;99.90
5554;DHT22;2800;49.528;8.666;2023-08-08T02:19:10;12.80;99.90
5554;DHT22;2800;49.528;8.666;2023-08-08T02:21:35;12.80;99.90
5554;DHT22;2800;49.528;8.666;2023-08-08T02:24:01;13.20;99.90
5554;DHT22;2800;49.528;8.666;2023-08-08T02:26:27;12.90;99.90
5554;DHT22;2800;49.528;8.666;2023-08-08T02:28:52;12.80;99.90
5554;DHT22;2800;49.528;8.666;2023-08-08T02:31:18;13.00;99.90
5554;DHT22;2800;49.528;8.666;2023-08-08T02:33:48;13.10;99.90
5554;DHT22;2800;49.528;8.666;2023-08-08T02:36:14;13.20;99.90
5554;DHT22;2800;49.528;8.666;2023-08-08T02:38:40;13.30;99.90
5554;DHT22;2800;49.528;8.666;2023-08-08T02:41:05;13.20;99.90
5554;DHT22;2800;49.528;8.666;2023-08-08T02:43:31;13.10;99.90
5554;DHT22;2800;49.528;8.666;2023-08-08T02:45:57;13.00;99.90
5554;DHT22;2800;49.528;8.666;2023-08-08T02:48:22;13.00;99.90
5554;DHT22;2800;49.528;8.666;2023-08-08T02:50:48;13.00;99.90
5554;DHT22;2800;49.528;8.666;2023-08-08T02:53:13;13.00;99.90
5554;DHT22;2800;49.528;8.666;2023-08-08T02:55:39;13.00;99.90
5554;DHT22;2800;49.528;8.666;2023-08-08T02:58:05;12.90;99.90
5554;DHT22;2800;49.528;8.666;2023-08-08T03:00:30;12.80;99.90
5554;DHT22;2800;49.528;8.666;2023-08-08T03:02:56;12.80;99.90
5554;DHT22;2800;49.528;8.666;2023-08-08T03:05:22;12.90;99.90
5554;DHT22;2800;49.528;8.666;2023-08-08T03:07:47;12.90;99.90
5554;DHT22;2800;49.528;8.666;2023-08-08T03:10:13;12.90;99.90
5554;DHT22;2800;49.528;8.666;2023-08-08T03:12:38;13.00;99.90
5554;DHT22;2800;49.528;8.666;2023-08-08T03:15:05;13.00;99.90
5554;DHT22;2800;49.528;8.666;2023-08-08T03:17:31;13.00;99.90
5554;DHT22;2800;49.528;8.666;2023-08-08T03:19:56;13.00;99.90
5554;DHT22;2800;49.528;8.666;2023-08-08T03:22:22;13.00;99.90
5554;DHT22;2800;49.528;8.666;2023-08-08T03:24:47;12.90;99.90
5554;DHT22;2800;49.528;8.666;2023-08-08T03:27:13;12.80;99.90
5554;DHT22;2800;49.528;8.666;2023-08-08T03:29:38;12.70;99.90
5554;DHT22;2800;49.528;8.666;2023-08-08T03:32:04;12.70;99.90
5554;DHT22;2800;49.528;8.666;2023-08-08T03:34:30;12.80;99.90
5554;DHT22;2800;49.528;8.666;2023-08-08T03:36:56;12.80;99.90
5554;DHT22;2800;49.528;8.666;2023-08-08T03:39:21;12.80;99.90
5554;DHT22;2800;49.528;8.666;2023-08-08T03:41:47;12.90;99.90
5554;DHT22;2800;49.528;8.666;2023-08-08T03:44:12;13.00;99.90
5554;DHT22;2800;49.528;8.666;2023-08-08T03:46:38;12.90;99.90
5554;DHT22;2800;49.528;8.666;2023-08-08T03:49:03;12.90;99.90
5554;DHT22;2800;49.528;8.666;2023-08-08T03:51:29;12.90;99.90
5554;DHT22;2800;49.528;8.666;2023-08-08T03:53:55;12.80;99.90
5554;DHT22;2800;49.528;8.666;2023-08-08T03:56:20;12.80;99.90
5554;DHT22;2800;49.528;8.666;2023-08-08T03:58:46;12.80;99.90
5554;DHT22;2800;49.528;8.666;2023-08-08T04:01:11;12.80;99.90
5554;DHT22;2800;49.528;8.666;2023-08-08T04:03:37;12.90;99.90
5554;DHT22;2800;49.528;8.666;2023-08-08T04:06:02;12.80;99.90
5554;DHT22;2800;49.528;8.666;2023-08-08T04:08:28;12.80;99.90
5554;DHT22;2800;49.528;8.666;2023-08-08T04:14:15;12.70;99.90
5554;DHT22;2800;49.528;8.666;2023-08-08T04:16:41;12.60;99.90
5554;DHT22;2800;49.528;8.666;2023-08-08T04:19:06;12.60;99.90
5554;DHT22;2800;49.528;8.666;2023-08-08T04:21:32;12.70;99.90
5554;DHT22;2800;49.528;8.666;2023-08-08T04:23:59;12.70;99.90
5554;DHT22;2800;49.528;8.666;2023-08-08T04:26:24;12.60;99.90
5554;DHT22;2800;49.528;8.666;2023-08-08T04:28:50;12.50;99.90
5554;DHT22;2800;49.528;8.666;2023-08-08T04:31:16;12.60;99.90
5554;DHT22;2800;49.528;8.666;2023-08-08T04:33:41;12.60;99.90
5554;DHT22;2800;49.528;8.666;2023-08-08T04:36:07;12.70;99.90
5554;DHT22;2800;49.528;8.666;2023-08-08T04:38:32;12.70;99.90
5554;DHT22;2800;49.528;8.666;2023-08-08T04:40:58;12.70;99.90
5554;DHT22;2800;49.528;8.666;2023-08-08T04:43:23;12.70;99.90
5554;DHT22;2800;49.528;8.666;2023-08-08T04:45:49;12.70;99.90
5554;DHT22;2800;49.528;8.666;2023-08-08T04:48:14;12.70;99.90
5554;DHT22;2800;49.528;8.666;2023-08-08T04:50:40;12.80;99.90
5554;DHT22;2800;49.528;8.666;2023-08-08T04:53:06;12.80;99.90
5554;DHT22;2800;49.528;8.666;2023-08-08T04:55:31;12.80;99.90
5554;DHT22;2800;49.528;8.666;2023-08-08T04:57:57;12.90;99.90
5554;DHT22;2800;49.528;8.666;2023-08-08T05:00:23;12.90;99.90
5554;DHT22;2800;49.528;8.666;2023-08-08T05:02:48;13.00;99.90
5554;DHT22;2800;49.528;8.666;2023-08-08T05:05:14;13.00;99.90
5554;DHT22;2800;49.528;8.666;2023-08-08T05:07:39;13.00;99.90
5554;DHT22;2800;49.528;8.666;2023-08-08T05:10:06;13.00;99.90
5554;DHT22;2800;49.528;8.666;2023-08-08T05:12:32;13.10;99.90
5554;DHT22;2800;49.528;8.666;2023-08-08T05:14:57;13.10;99.90
5554;DHT22;2800;49.528;8.666;2023-08-08T05:17:23;13.10;99.90
5554;DHT22;2800;49.528;8.666;2023-08-08T05:19:48;13.20;99.90
5554;DHT22;2800;49.528;8.666;2023-08-08T05:22:14;13.20;99.90
5554;DHT22;2800;49.528;8.666;2023-08-08T05:24:39;13.20;99.90
5554;DHT22;2800;49.528;8.666;2023-08-08T05:27:05;13.30;99.90
5554;DHT22;2800;49.528;8.666;2023-08-08T05:29:30;13.40;99.90
5554;DHT22;2800;49.528;8.666;2023-08-08T05:31:56;13.40;99.90
5554;DHT22;2800;49.528;8.666;2023-08-08T05:34:23;13.50;99.90
5554;DHT22;2800;49.528;8.666;2023-08-08T05:36:49;13.50;99.90
5554;DHT22;2800;49.528;8.666;2023-08-08T05:39:14;13.60;99.90
5554;DHT22;2800;49.528;8.666;2023-08-08T05:41:40;13.60;99.90
5554;DHT22;2800;49.528;8.666;2023-08-08T05:44:05;13.70;99.90
5554;DHT22;2800;49.528;8.666;2023-08-08T05:46:31;13.70;99.90
5554;DHT22;2800;49.528;8.666;2023-08-08T05:48:57;13.80;99.90
5554;DHT22;2800;49.528;8.666;2023-08-08T05:51:22;13.90;99.90
5554;DHT22;2800;49.528;8.666;2023-08-08T05:53:48;14.00;99.90
5554;DHT22;2800;49.528;8.666;2023-08-08T05:56:13;14.00;99.90
5554;DHT22;2800;49.528;8.666;2023-08-08T05:58:39;14.10;99.90
5554;DHT22;2800;49.528;8.666;2023-08-08T06:01:04;14.10;99.90
5554;DHT22;2800;49.528;8.666;2023-08-08T06:03:34;14.10;99.90
5554;DHT22;2800;49.528;8.666;2023-08-08T06:06:00;14.20;99.90
5554;DHT22;2800;49.528;8.666;2023-08-08T06:08:25;13.80;99.90
5554;DHT22;2800;49.528;8.666;2023-08-08T06:10:51;14.30;99.90
5554;DHT22;2800;49.528;8.666;2023-08-08T06:13:16;14.40;99.90
5554;DHT22;2800;49.528;8.666;2023-08-08T06:15:42;14.50;99.90
5554;DHT22;2800;49.528;8.666;2023-08-08T06:18:08;14.60;99.90
5554;DHT22;2800;49.528;8.666;2023-08-08T06:20:33;14.70;99.90
5554;DHT22;2800;49.528;8.666;2023-08-08T06:22:59;14.80;99.90
5554;DHT22;2800;49.528;8.666;2023-08-08T06:25:24;15.00;99.90
5554;DHT22;2800;49.528;8.666;2023-08-08T06:27:50;15.10;99.90
5554;DHT22;2800;49.528;8.666;2023-08-08T06:30:15;15.30;99.90
5554;DHT22;2800;49.528;8.666;2023-08-08T06:32:41;15.20;99.90
5554;DHT22;2800;49.528;8.666;2023-08-08T06:35:07;15.30;99.90
5554;DHT22;2800;49.528;8.666;2023-08-08T06:37:32;15.60;99.90
5554;DHT22;2800;49.528;8.666;2023-08-08T06:39:58;15.80;99.90
5554;DHT22;2800;49.528;8.666;2023-08-08T06:42:23;15.90;99.90
5554;DHT22;2800;49.528;8.666;2023-08-08T06:44:49;15.80;99.90
5554;DHT22;2800;49.528;8.666;2023-08-08T06:47:14;15.60;99.90
5554;DHT22;2800;49.528;8.666;2023-08-08T06:49:40;15.40;99.90
5554;DHT22;2800;49.528;8.666;2023-08-08T06:52:06;15.20;99.90
5554;DHT22;2800;49.528;8.666;2023-08-08T06:54:32;15.40;99.90
5554;DHT22;2800;49.528;8.666;2023-08-08T06:56:57;15.50;99.90
5554;DHT22;2800;49.528;8.666;2023-08-08T06:59:23;15.80;99.90
5554;DHT22;2800;49.528;8.666;2023-08-08T07:01:50;16.00;99.90
5554;DHT22;2800;49.528;8.666;2023-08-08T07:04:16;15.90;99.90
5554;DHT22;2800;49.528;8.666;2023-08-08T07:06:43;15.70;99.90
5554;DHT22;2800;49.528;8.666;2023-08-08T07:09:09;15.90;99.90
5554;DHT22;2800;49.528;8.666;2023-08-08T07:11:37;16.30;99.90
5554;DHT22;2800;49.528;8.666;2023-08-08T07:14:03;16.40;99.90
5554;DHT22;2800;49.528;8.666;2023-08-08T07:16:28;16.40;99.90
5554;DHT22;2800;49.528;8.666;2023-08-08T07:18:54;16.40;99.90
5554;DHT22;2800;49.528;8.666;2023-08-08T07:21:20;16.60;99.90
5554;DHT22;2800;49.528;8.666;2023-08-08T07:23:45;16.60;99.90
5554;DHT22;2800;49.528;8.666;2023-08-08T07:26:11;16.50;99.90
5554;DHT22;2800;49.528;8.666;2023-08-08T07:28:37;16.70;99.90
5554;DHT22;2800;49.528;8.666;2023-08-08T07:31:03;17.00;99.90
5554;DHT22;2800;49.528;8.666;2023-08-08T07:33:28;17.00;99.90
5554;DHT22;2800;49.528;8.666;2023-08-08T07:35:54;18.00;99.90
5554;DHT22;2800;49.528;8.666;2023-08-08T07:38:19;17.00;99.90
5554;DHT22;2800;49.528;8.666;2023-08-08T07:40:45;17.60;99.90
5554;DHT22;2800;49.528;8.666;2023-08-08T07:43:11;17.70;99.90
5554;DHT22;2800;49.528;8.666;2023-08-08T07:45:37;17.70;99.90
5554;DHT22;2800;49.528;8.666;2023-08-08T07:48:03;17.60;99.90
5554;DHT22;2800;49.528;8.666;2023-08-08T07:50:29;17.60;99.90
5554;DHT22;2800;49.528;8.666;2023-08-08T07:52:54;17.60;99.90
5554;DHT22;2800;49.528;8.666;2023-08-08T07:55:20;17.60;99.90
5554;DHT22;2800;49.528;8.666;2023-08-08T07:57:46;17.70;99.90
5554;DHT22;2800;49.528;8.666;2023-08-08T08:00:12;18.10;99.90
5554;DHT22;2800;49.528;8.666;2023-08-08T08:02:39;17.80;99.90
5554;DHT22;2800;49.528;8.666;2023-08-08T08:05:05;17.80;99.90
5554;DHT22;2800;49.528;8.666;2023-08-08T08:07:34;17.90;99.90
5554;DHT22;2800;49.528;8.666;2023-08-08T08:10:00;17.80;99.90
5554;DHT22;2800;49.528;8.666;2023-08-08T08:12:25;18.00;99.90
5554;DHT22;2800;49.528;8.666;2023-08-08T08:14:51;18.50;99.90
5554;DHT22;2800;49.528;8.666;2023-08-08T08:17:16;18.30;99.90
5554;DHT22;2800;49.528;8.666;2023-08-08T08:19:42;18.10;99.90
5554;DHT22;2800;49.528;8.666;2023-08-08T08:22:07;17.90;99.90
5554;DHT22;2800;49.528;8.666;2023-08-08T08:24:33;18.00;99.90
5554;DHT22;2800;49.528;8.666;2023-08-08T08:26:59;18.20;99.90
5554;DHT22;2800;49.528;8.666;2023-08-08T08:29:24;18.10;99.90
5554;DHT22;2800;49.528;8.666;2023-08-08T08:31:50;18.20;99.90
5554;DHT22;2800;49.528;8.666;2023-08-08T08:34:15;18.20;99.90
5554;DHT22;2800;49.528;8.666;2023-08-08T08:36:41;18.30;99.90
5554;DHT22;2800;49.528;8.666;2023-08-08T08:39:06;18.00;99.90
5554;DHT22;2800;49.528;8.666;2023-08-08T08:41:32;17.90;99.90
5554;DHT22;2800;49.528;8.666;2023-08-08T08:43:59;17.90;99.90
5554;DHT22;2800;49.528;8.666;2023-08-08T08:46:26;18.30;99.90
5554;DHT22;2800;49.528;8.666;2023-08-08T08:48:54;18.70;99.90
5554;DHT22;2800;49.528;8.666;2023-08-08T08:51:21;18.60;99.90
5554;DHT22;2800;49.528;8.666;2023-08-08T08:53:47;18.60;99.90
5554;DHT22;2800;49.528;8.666;2023-08-08T08:56:14;18.70;99.90
5554;DHT22;2800;49.528;8.666;2023-08-08T08:58:40;18.50;99.90
5554;DHT22;2800;49.528;8.666;2023-08-08T09:01:07;18.60;99.90
5554;DHT22;2800;49.528;8.666;2023-08-08T09:03:34;18.70;99.90
5554;DHT22;2800;49.528;8.666;2023-08-08T09:06:00;19.00;99.90
5554;DHT22;2800;49.528;8.666;2023-08-08T09:08:26;19.10;99.90
5554;DHT22;2800;49.528;8.666;2023-08-08T09:10:52;18.90;99.90
5554;DHT22;2800;49.528;8.666;2023-08-08T09:13:17;18.80;99.90
5554;DHT22;2800;49.528;8.666;2023-08-08T09:15:44;19.00;99.90
5554;DHT22;2800;49.528;8.666;2023-08-08T09:18:12;19.20;99.90
5554;DHT22;2800;49.528;8.666;2023-08-08T09:20:37;19.50;99.90
5554;DHT22;2800;49.528;8.666;2023-08-08T09:23:03;19.50;99.30
5554;DHT22;2800;49.528;8.666;2023-08-08T09:25:28;19.30;98.40
5554;DHT22;2800;49.528;8.666;2023-08-08T09:27:54;19.10;97.60
5554;DHT22;2800;49.528;8.666;2023-08-08T09:30:21;19.30;98.50
5554;DHT22;2800;49.528;8.666;2023-08-08T09:32:47;19.50;98.00
5554;DHT22;2800;49.528;8.666;2023-08-08T09:35:12;20.20;97.90
5554;DHT22;2800;49.528;8.666;2023-08-08T09:37:38;20.10;98.10
5554;DHT22;2800;49.528;8.666;2023-08-08T09:40:05;20.70;93.20
5554;DHT22;2800;49.528;8.666;2023-08-08T09:42:33;20.80;91.20
5554;DHT22;2800;49.528;8.666;2023-08-08T09:44:59;21.20;90.60
5554;DHT22;2800;49.528;8.666;2023-08-08T09:47:25;20.90;73.30
5554;DHT22;2800;49.528;8.666;2023-08-08T09:50:00;21.80;74.50
5554;DHT22;2800;49.528;8.666;2023-08-08T09:52:29;22.30;90.90
5554;DHT22;2800;49.528;8.666;2023-08-08T09:54:55;22.20;88.20
5554;DHT22;2800;49.528;8.666;2023-08-08T09:57:22;22.70;90.80
5554;DHT22;2800;49.528;8.666;2023-08-08T09:59:48;23.40;93.40
5554;DHT22;2800;49.528;8.666;2023-08-08T10:02:15;22.40;75.60
5554;DHT22;2800;49.528;8.666;2023-08-08T10:04:41;22.40;79.20
5554;DHT22;2800;49.528;8.666;2023-08-08T10:07:07;22.10;77.60
5554;DHT22;2800;49.528;8.666;2023-08-08T10:09:33;22.10;73.30
5554;DHT22;2800;49.528;8.666;2023-08-08T10:11:59;22.10;71.80
5554;DHT22;2800;49.528;8.666;2023-08-08T10:14:30;22.10;70.90
5554;DHT22;2800;49.528;8.666;2023-08-08T10:16:56;22.30;70.30
5554;DHT22;2800;49.528;8.666;2023-08-08T10:19:23;22.50;74.60
5554;DHT22;2800;49.528;8.666;2023-08-08T10:21:54;22.60;74.90
5554;DHT22;2800;49.528;8.666;2023-08-08T10:24:20;22.30;98.10
5554;DHT22;2800;49.528;8.666;2023-08-08T10:26:56;22.00;69.30
5554;DHT22;2800;49.528;8.666;2023-08-08T10:29:24;22.30;66.00
5554;DHT22;2800;49.528;8.666;2023-08-08T10:31:52;22.20;73.40
5554;DHT22;2800;49.528;8.666;2023-08-08T10:34:20;21.80;73.30
5554;DHT22;2800;49.528;8.666;2023-08-08T10:36:50;21.60;73.30
5554;DHT22;2800;49.528;8.666;2023-08-08T10:39:17;22.10;72.30
5554;DHT22;2800;49.528;8.666;2023-08-08T10:41:46;22.40;78.20
5554;DHT22;2800;49.528;8.666;2023-08-08T10:44:12;22.50;80.40
5554;DHT22;2800;49.528;8.666;2023-08-08T10:46:40;22.80;82.90
5554;DHT22;2800;49.528;8.666;2023-08-08T10:49:06;22.60;82.30
5554;DHT22;2800;49.528;8.666;2023-08-08T10:51:43;22.70;77.10
5554;DHT22;2800;49.528;8.666;2023-08-08T10:54:31;23.20;78.60
5554;DHT22;2800;49.528;8.666;2023-08-08T10:56:58;22.50;76.60
5554;DHT22;2800;49.528;8.666;2023-08-08T10:59:36;22.80;76.00
5554;DHT22;2800;49.528;8.666;2023-08-08T11:02:02;22.90;76.10
5554;DHT22;2800;49.528;8.666;2023-08-08T11:04:29;22.40;77.30
5554;DHT22;2800;49.528;8.666;2023-08-08T11:06:56;22.40;78.90
5554;DHT22;2800;49.528;8.666;2023-08-08T11:09:22;22.50;78.60
5554;DHT22;2800;49.528;8.666;2023-08-08T11:11:48;23.50;81.90
5554;DHT22;2800;49.528;8.666;2023-08-08T11:14:16;23.10;81.00
5554;DHT22;2800;49.528;8.666;2023-08-08T11:16:43;22.60;83.00
5554;DHT22;2800;49.528;8.666;2023-08-08T11:19:09;22.80;78.60
5554;DHT22;2800;49.528;8.666;2023-08-08T11:21:36;23.00;82.80
5554;DHT22;2800;49.528;8.666;2023-08-08T11:24:04;23.10;79.70
5554;DHT22;2800;49.528;8.666;2023-08-08T11:26:30;23.10;80.60
5554;DHT22;2800;49.528;8.666;2023-08-08T11:29:00;23.30;78.10
5554;DHT22;2800;49.528;8.666;2023-08-08T11:31:27;23.10;81.40
5554;DHT22;2800;49.528;8.666;2023-08-08T11:33:54;22.60;77.60
5554;DHT22;2800;49.528;8.666;2023-08-08T11:36:21;22.90;84.30
5554;DHT22;2800;49.528;8.666;2023-08-08T11:38:48;23.00;83.00
5554;DHT22;2800;49.528;8.666;2023-08-08T11:41:16;23.00;75.60
5554;DHT22;2800;49.528;8.666;2023-08-08T11:43:43;23.30;78.90
5554;DHT22;2800;49.528;8.666;2023-08-08T11:46:12;23.40;83.70
5554;DHT22;2800;49.528;8.666;2023-08-08T11:48:39;23.70;69.60
5554;DHT22;2800;49.528;8.666;2023-08-08T11:51:05;24.10;69.30
5554;DHT22;2800;49.528;8.666;2023-08-08T11:53:31;24.20;67.60
5554;DHT22;2800;49.528;8.666;2023-08-08T11:55:58;23.70;69.30
5554;DHT22;2800;49.528;8.666;2023-08-08T11:58:25;22.90;66.80
5554;DHT22;2800;49.528;8.666;2023-08-08T12:00:51;22.80;66.80
5554;DHT22;2800;49.528;8.666;2023-08-08T12:03:18;22.90;66.00
5554;DHT22;2800;49.528;8.666;2023-08-08T12:05:46;23.60;71.70
5554;DHT22;2800;49.528;8.666;2023-08-08T12:08:12;24.10;71.40
5554;DHT22;2800;49.528;8.666;2023-08-08T12:10:38;24.10;71.30
5554;DHT22;2800;49.528;8.666;2023-08-08T12:13:04;23.70;79.60
5554;DHT22;2800;49.528;8.666;2023-08-08T12:15:32;23.60;71.40
5554;DHT22;2800;49.528;8.666;2023-08-08T12:18:01;23.50;72.70
5554;DHT22;2800;49.528;8.666;2023-08-08T12:20:28;23.20;68.90
5554;DHT22;2800;49.528;8.666;2023-08-08T12:22:58;23.60;70.10
5554;DHT22;2800;49.528;8.666;2023-08-08T12:25:23;23.40;72.80
5554;DHT22;2800;49.528;8.666;2023-08-08T12:27:49;23.60;72.70
5554;DHT22;2800;49.528;8.666;2023-08-08T12:30:15;24.10;76.90
5554;DHT22;2800;49.528;8.666;2023-08-08T12:32:40;24.10;72.10
5554;DHT22;2800;49.528;8.666;2023-08-08T12:35:06;23.40;75.70
5554;DHT22;2800;49.528;8.666;2023-08-08T12:37:32;23.70;71.20
5554;DHT22;2800;49.528;8.666;2023-08-08T12:39:58;23.40;94.40
5554;DHT22;2800;49.528;8.666;2023-08-08T12:42:23;23.10;69.80
5554;DHT22;2800;49.528;8.666;2023-08-08T12:44:49;23.40;77.10
5554;DHT22;2800;49.528;8.666;2023-08-08T12:47:19;24.40;75.00
5554;DHT22;2800;49.528;8.666;2023-08-08T12:49:46;25.00;63.80
5554;DHT22;2800;49.528;8.666;2023-08-08T12:52:13;24.70;67.00
5554;DHT22;2800;49.528;8.666;2023-08-08T12:54:38;24.60;61.30
5554;DHT22;2800;49.528;8.666;2023-08-08T12:57:04;24.60;68.10
5554;DHT22;2800;49.528;8.666;2023-08-08T12:59:30;24.00;65.40
5554;DHT22;2800;49.528;8.666;2023-08-08T13:01:55;24.30;67.80
5554;DHT22;2800;49.528;8.666;2023-08-08T13:04:21;25.60;82.50
5554;DHT22;2800;49.528;8.666;2023-08-08T13:06:48;26.40;85.00
5554;DHT22;2800;49.528;8.666;2023-08-08T13:09:13;26.20;90.60
5554;DHT22;2800;49.528;8.666;2023-08-08T13:11:40;26.20;95.60
5554;DHT22;2800;49.528;8.666;2023-08-08T13:14:06;25.90;96.00
5554;DHT22;2800;49.528;8.666;2023-08-08T13:16:32;25.70;99.90
5554;DHT22;2800;49.528;8.666;2023-08-08T13:18:57;25.70;95.50
5554;DHT22;2800;49.528;8.666;2023-08-08T13:21:23;24.60;99.90
5554;DHT22;2800;49.528;8.666;2023-08-08T13:23:48;23.60;89.90
5554;DHT22;2800;49.528;8.666;2023-08-08T13:26:14;23.60;99.90
5554;DHT22;2800;49.528;8.666;2023-08-08T13:28:40;24.00;99.90
5554;DHT22;2800;49.528;8.666;2023-08-08T13:31:05;23.90;99.90
5554;DHT22;2800;49.528;8.666;2023-08-08T13:33:33;23.50;99.90
5554;DHT22;2800;49.528;8.666;2023-08-08T13:36:00;23.20;99.90
5554;DHT22;2800;49.528;8.666;2023-08-08T13:38:25;23.90;99.90
5554;DHT22;2800;49.528;8.666;2023-08-08T13:40:51;24.00;99.90
5554;DHT22;2800;49.528;8.666;2023-08-08T13:43:16;24.10;99.90
5554;DHT22;2800;49.528;8.666;2023-08-08T13:45:42;23.90;99.90
5554;DHT22;2800;49.528;8.666;2023-08-08T13:48:07;24.30;99.90
5554;DHT22;2800;49.528;8.666;2023-08-08T13:50:33;24.30;99.90
5554;DHT22;2800;49.528;8.666;2023-08-08T13:52:58;24.50;99.90
5554;DHT22;2800;49.528;8.666;2023-08-08T13:55:24;24.20;99.90
5554;DHT22;2800;49.528;8.666;2023-08-08T13:57:51;24.10;99.90
5554;DHT22;2800;49.528;8.666;2023-08-08T14:00:16;24.10;99.90
5554;DHT22;2800;49.528;8.666;2023-08-08T14:02:42;24.10;99.90
5554;DHT22;2800;49.528;8.666;2023-08-08T14:05:07;23.50;99.90
5554;DHT22;2800;49.528;8.666;2023-08-08T14:07:34;23.60;99.90
5554;DHT22;2800;49.528;8.666;2023-08-08T14:10:00;24.00;99.90
5554;DHT22;2800;49.528;8.666;2023-08-08T14:12:26;23.50;99.90
5554;DHT22;2800;49.528;8.666;2023-08-08T14:14:51;23.70;99.90
5554;DHT22;2800;49.528;8.666;2023-08-08T14:17:17;23.90;99.90
5554;DHT22;2800;49.528;8.666;2023-08-08T14:19:42;23.90;99.90
5554;DHT22;2800;49.528;8.666;2023-08-08T14:22:08;23.70;99.90
5554;DHT22;2800;49.528;8.666;2023-08-08T14:24:33;23.40;99.90
5554;DHT22;2800;49.528;8.666;2023-08-08T14:26:59;22.60;99.90
5554;DHT22;2800;49.528;8.666;2023-08-08T14:29:24;22.50;99.90
5554;DHT22;2800;49.528;8.666;2023-08-08T14:31:50;22.60;99.90
5554;DHT22;2800;49.528;8.666;2023-08-08T14:34:16;23.10;99.90
5554;DHT22;2800;49.528;8.666;2023-08-08T14:36:41;23.00;99.90
5554;DHT22;2800;49.528;8.666;2023-08-08T14:39:07;22.80;99.90
5554;DHT22;2800;49.528;8.666;2023-08-08T14:41:33;22.40;99.90
5554;DHT22;2800;49.528;8.666;2023-08-08T14:43:58;22.40;99.90
5554;DHT22;2800;49.528;8.666;2023-08-08T14:46:24;22.30;99.90
5554;DHT22;2800;49.528;8.666;2023-08-08T14:48:49;22.20;99.90
5554;DHT22;2800;49.528;8.666;2023-08-08T14:51:15;22.10;99.90
5554;DHT22;2800;49.528;8.666;2023-08-08T14:53:42;21.80;99.90
5554;DHT22;2800;49.528;8.666;2023-08-08T14:56:09;21.70;99.90
5554;DHT22;2800;49.528;8.666;2023-08-08T14:58:34;21.60;99.90
5554;DHT22;2800;49.528;8.666;2023-08-08T15:01:01;21.60;99.90
5554;DHT22;2800;49.528;8.666;2023-08-08T15:03:26;21.50;99.90
5554;DHT22;2800;49.528;8.666;2023-08-08T15:05:52;21.40;99.90
5554;DHT22;2800;49.528;8.666;2023-08-08T15:08:17;21.40;99.90
5554;DHT22;2800;49.528;8.666;2023-08-08T15:10:44;21.30;99.90
5554;DHT22;2800;49.528;8.666;2023-08-08T15:13:09;21.30;99.90
5554;DHT22;2800;49.528;8.666;2023-08-08T15:15:35;21.30;95.40
5554;DHT22;2800;49.528;8.666;2023-08-08T15:18:00;21.10;99.90
5554;DHT22;2800;49.528;8.666;2023-08-08T15:20:26;21.10;99.90
5554;DHT22;2800;49.528;8.666;2023-08-08T15:22:51;21.00;99.90
5554;DHT22;2800;49.528;8.666;2023-08-08T15:25:17;21.00;99.90
5554;DHT22;2800;49.528;8.666;2023-08-08T15:27:43;20.90;99.90
5554;DHT22;2800;49.528;8.666;2023-08-08T15:30:09;20.90;99.90
5554;DHT22;2800;49.528;8.666;2023-08-08T15:32:34;20.80;99.90
5554;DHT22;2800;49.528;8.666;2023-08-08T15:35:00;20.70;99.90
5554;DHT22;2800;49.528;8.666;2023-08-08T15:37:25;20.80;99.90
5554;DHT22;2800;49.528;8.666;2023-08-08T15:39:51;20.70;99.90
5554;DHT22;2800;49.528;8.666;2023-08-08T15:42:16;20.70;81.60
5554;DHT22;2800;49.528;8.666;2023-08-08T15:44:42;20.70;99.90
5554;DHT22;2800;49.528;8.666;2023-08-08T15:47:07;20.70;99.90
5554;DHT22;2800;49.528;8.666;2023-08-08T15:49:34;20.70;85.50
5554;DHT22;2800;49.528;8.666;2023-08-08T15:51:59;20.60;86.90
5554;DHT22;2800;49.528;8.666;2023-08-08T15:54:25;20.60;77.40
5554;DHT22;2800;49.528;8.666;2023-08-08T15:56:51;20.70;84.10
5554;DHT22;2800;49.528;8.666;2023-08-08T15:59:17;20.80;90.10
5554;DHT22;2800;49.528;8.666;2023-08-08T16:01:43;20.80;90.70